createdAt,value
2022-12-23T00:00:22.303Z,100.00
2022-12-23T00:02:50.030Z,100.00
2022-12-23T00:05:17.985Z,100.00
2022-12-23T00:07:45.982Z,100.00
2022-12-23T00:10:13.929Z,100.00
2022-12-23T00:12:59.397Z,100.00
2022-12-23T00:15:28.702Z,100.00
2022-12-23T00:17:56.371Z,100.00
2022-12-23T00:20:24.087Z,100.00
2022-12-23T00:23:06.703Z,100.00
2022-12-23T00:25:45.070Z,100.00
2022-12-23T00:28:14.795Z,100.00
2022-12-23T00:30:47.881Z,100.00
2022-12-23T00:33:15.979Z,100.00
2022-12-23T00:35:43.726Z,100.00
2022-12-23T00:38:13.560Z,100.00
2022-12-23T00:40:58.737Z,100.00
2022-12-23T00:43:26.313Z,100.00
2022-12-23T00:45:55.337Z,100.00
2022-12-23T00:48:40.494Z,100.00
2022-12-23T00:51:08.130Z,100.00
2022-12-23T00:53:35.840Z,100.00
2022-12-23T00:56:03.419Z,100.00
2022-12-23T00:58:31.928Z,100.00
2022-12-23T01:01:18.384Z,100.00
2022-12-23T01:04:15.391Z,100.00
2022-12-23T01:06:43.015Z,100.00
2022-12-23T01:09:11.023Z,100.00
2022-12-23T01:11:38.851Z,100.00
2022-12-23T01:14:09.217Z,100.00
2022-12-23T01:16:39.306Z,100.00
2022-12-23T01:19:07.507Z,100.00
2022-12-23T01:21:37.125Z,100.00
2022-12-23T01:24:05.084Z,100.00
2022-12-23T01:26:32.814Z,100.00
2022-12-23T01:29:00.751Z,100.00
2022-12-23T01:31:31.422Z,100.00
2022-12-23T01:34:02.028Z,100.00
2022-12-23T01:36:29.636Z,100.00
2022-12-23T01:38:57.653Z,100.00
2022-12-23T01:41:44.913Z,100.00
2022-12-23T01:44:53.572Z,100.00
2022-12-23T01:47:25.221Z,100.00
2022-12-23T01:49:56.351Z,100.00
2022-12-23T01:52:24.177Z,100.00
2022-12-23T01:54:52.089Z,100.00
2022-12-23T01:57:19.762Z,100.00
2022-12-23T02:00:05.430Z,100.00
2022-12-23T02:02:52.900Z,100.00
2022-12-23T02:05:22.532Z,100.00
2022-12-23T02:08:07.821Z,100.00
2022-12-23T02:10:46.215Z,100.00
2022-12-23T02:13:17.555Z,100.00
2022-12-23T02:16:07.308Z,100.00
2022-12-23T02:18:43.508Z,100.00
2022-12-23T02:21:37.313Z,100.00
2022-12-23T02:24:30.108Z,100.00
2022-12-23T02:27:06.148Z,100.00
2022-12-23T02:30:04.862Z,100.00
2022-12-23T02:32:41.503Z,100.00
2022-12-23T02:35:13.805Z,100.00
2022-12-23T02:37:47.747Z,100.00
2022-12-23T02:40:22.595Z,100.00
2022-12-23T02:42:55.209Z,100.00
2022-12-23T02:45:26.839Z,100.00
2022-12-23T02:47:57.981Z,100.00
2022-12-23T02:50:30.802Z,100.00
2022-12-23T02:53:01.096Z,100.00
2022-12-23T02:55:30.692Z,100.00
2022-12-23T02:57:59.000Z,100.00
2022-12-23T03:00:26.716Z,100.00
2022-12-23T03:02:55.762Z,100.00
2022-12-23T03:05:28.439Z,100.00
2022-12-23T03:07:59.522Z,100.00
2022-12-23T03:10:32.746Z,100.00
2022-12-23T03:13:06.058Z,100.00
2022-12-23T03:15:39.255Z,100.00
2022-12-23T03:18:13.241Z,100.00
2022-12-23T03:20:44.674Z,100.00
2022-12-23T03:23:18.269Z,100.00
2022-12-23T03:25:49.103Z,100.00
2022-12-23T03:28:20.483Z,100.00
2022-12-23T03:30:52.126Z,100.00
2022-12-23T03:33:23.827Z,100.00
2022-12-23T03:35:55.140Z,100.00
2022-12-23T03:38:24.129Z,100.00
2022-12-23T03:40:55.823Z,100.00
2022-12-23T03:43:26.698Z,100.00
2022-12-23T03:45:58.935Z,100.00
2022-12-23T03:48:31.196Z,100.00
2022-12-23T03:51:01.141Z,100.00
2022-12-23T03:53:30.751Z,100.00
2022-12-23T03:56:02.401Z,100.00
2022-12-23T03:58:36.062Z,100.00
2022-12-23T04:01:11.384Z,100.00
2022-12-23T04:03:44.119Z,100.00
2022-12-23T04:06:15.089Z,100.00
2022-12-23T04:08:43.464Z,100.00
2022-12-23T04:11:11.129Z,100.00
2022-12-23T04:13:38.838Z,100.00
2022-12-23T04:16:07.032Z,100.00
2022-12-23T04:18:34.725Z,100.00
2022-12-23T04:21:03.863Z,100.00
2022-12-23T04:23:31.466Z,100.00
2022-12-23T04:25:59.096Z,100.00
2022-12-23T04:28:26.743Z,100.00
2022-12-23T04:30:54.320Z,100.00
2022-12-23T04:33:21.952Z,100.00
2022-12-23T04:35:49.570Z,100.00
2022-12-23T04:38:18.493Z,100.00
2022-12-23T04:40:47.116Z,100.00
2022-12-23T04:43:14.701Z,100.00
2022-12-23T04:45:42.378Z,100.00
2022-12-23T04:48:10.416Z,100.00
2022-12-23T04:50:37.992Z,100.00
2022-12-23T04:53:05.507Z,100.00
2022-12-23T04:55:34.456Z,100.00
2022-12-23T04:58:02.428Z,100.00
2022-12-23T05:00:35.455Z,100.00
2022-12-23T05:03:06.871Z,100.00
2022-12-23T05:05:34.621Z,100.00
2022-12-23T05:08:04.095Z,100.00
2022-12-23T05:10:31.676Z,100.00
2022-12-23T05:13:00.594Z,100.00
2022-12-23T05:15:28.259Z,100.00
2022-12-23T05:17:55.845Z,100.00
2022-12-23T05:20:23.445Z,100.00
2022-12-23T05:22:51.017Z,100.00
2022-12-23T05:25:18.636Z,100.00
2022-12-23T05:27:46.285Z,100.00
2022-12-23T05:30:15.421Z,100.00
2022-12-23T05:32:42.989Z,100.00
2022-12-23T05:35:11.138Z,100.00
2022-12-23T05:37:38.813Z,100.00
2022-12-23T05:40:07.254Z,100.00
2022-12-23T05:42:34.907Z,100.00
2022-12-23T05:45:02.526Z,100.00
2022-12-23T05:47:31.598Z,100.00
2022-12-23T05:49:59.177Z,100.00
2022-12-23T05:52:27.011Z,100.00
2022-12-23T05:54:54.656Z,100.00
2022-12-23T05:57:22.244Z,100.00
2022-12-23T05:59:49.825Z,100.00
2022-12-23T06:02:17.566Z,100.00
2022-12-23T06:04:46.669Z,100.00
2022-12-23T06:07:14.465Z,100.00
2022-12-23T06:09:42.650Z,100.00
2022-12-23T06:12:10.956Z,100.00
2022-12-23T06:14:39.044Z,100.00
2022-12-23T06:17:06.811Z,100.00
2022-12-23T06:19:34.503Z,100.00
2022-12-23T06:22:03.487Z,100.00
2022-12-23T06:24:31.086Z,100.00
2022-12-23T06:26:58.669Z,100.00
2022-12-23T06:29:26.634Z,100.00
2022-12-23T06:31:54.254Z,100.00
2022-12-23T06:34:21.854Z,100.00
2022-12-23T06:36:49.578Z,100.00
2022-12-23T06:39:18.580Z,100.00
2022-12-23T06:41:46.306Z,100.00
2022-12-23T06:44:14.025Z,100.00
2022-12-23T06:46:41.777Z,100.00
2022-12-23T06:49:13.373Z,100.00
2022-12-23T06:51:41.489Z,100.00
2022-12-23T06:54:11.679Z,100.00
2022-12-23T06:56:40.723Z,100.00
2022-12-23T06:59:08.313Z,100.00
2022-12-23T07:01:36.118Z,100.00
2022-12-23T07:04:04.070Z,100.00
2022-12-23T07:06:31.789Z,100.00
2022-12-23T07:08:59.561Z,100.00
2022-12-23T07:11:27.204Z,100.00
2022-12-23T07:13:56.178Z,100.00
2022-12-23T07:16:23.833Z,100.00
2022-12-23T07:18:51.529Z,100.00
2022-12-23T07:21:26.724Z,100.00
2022-12-23T07:23:56.486Z,100.00
2022-12-23T07:26:24.152Z,100.00
2022-12-23T07:28:51.761Z,100.00
2022-12-23T07:31:21.117Z,100.00
2022-12-23T07:33:48.806Z,100.00
2022-12-23T07:36:16.539Z,100.00
2022-12-23T07:38:44.272Z,100.00
2022-12-23T07:41:11.975Z,100.00
2022-12-23T07:43:39.713Z,100.00
2022-12-23T07:46:08.192Z,100.00
2022-12-23T07:48:37.478Z,100.00
2022-12-23T07:51:06.150Z,100.00
2022-12-23T07:53:33.806Z,100.00
2022-12-23T07:56:01.567Z,100.00
2022-12-23T07:58:29.304Z,100.00
2022-12-23T08:01:01.476Z,100.00
2022-12-23T08:03:29.328Z,100.00
2022-12-23T08:06:02.754Z,100.00
2022-12-23T08:08:30.475Z,100.00
2022-12-23T08:11:00.291Z,100.00
2022-12-23T08:13:28.495Z,100.00
2022-12-23T08:15:57.361Z,100.00
2022-12-23T08:18:25.688Z,100.00
2022-12-23T08:20:57.362Z,100.00
2022-12-23T08:23:27.439Z,100.00
2022-12-23T08:26:02.580Z,100.00
2022-12-23T08:28:30.445Z,100.00
2022-12-23T08:31:04.963Z,100.00
2022-12-23T08:33:32.882Z,100.00
2022-12-23T08:36:00.591Z,100.00
2022-12-23T08:38:29.674Z,100.00
2022-12-23T08:40:57.424Z,100.00
2022-12-23T08:43:30.241Z,100.00
2022-12-23T08:46:01.705Z,100.00
2022-12-23T08:48:29.597Z,100.00
2022-12-23T08:50:57.311Z,100.00
2022-12-23T08:53:25.054Z,100.00
2022-12-23T08:55:54.169Z,100.00
2022-12-23T08:58:21.839Z,100.00
2022-12-23T09:00:49.495Z,100.00
2022-12-23T09:03:17.238Z,100.00
2022-12-23T09:05:45.095Z,100.00
2022-12-23T09:08:12.887Z,100.00
2022-12-23T09:10:42.801Z,100.00
2022-12-23T09:13:16.272Z,100.00
2022-12-23T09:15:47.841Z,100.00
2022-12-23T09:18:15.628Z,100.00
2022-12-23T09:20:43.495Z,100.00
2022-12-23T09:23:11.313Z,100.00
2022-12-23T09:25:39.128Z,100.00
2022-12-23T09:28:08.115Z,100.00
2022-12-23T09:30:37.107Z,100.00
2022-12-23T09:33:04.875Z,100.00
2022-12-23T09:35:33.273Z,100.00
2022-12-23T09:38:00.866Z,100.00
2022-12-23T09:40:30.427Z,100.00
2022-12-23T09:43:07.692Z,100.00
2022-12-23T09:45:49.701Z,100.00
2022-12-23T09:48:20.783Z,100.00
2022-12-23T09:50:48.830Z,100.00
2022-12-23T09:53:18.936Z,100.00
2022-12-23T09:55:51.088Z,100.00
2022-12-23T09:58:28.926Z,100.00
2022-12-23T10:01:07.836Z,100.00
2022-12-23T10:03:47.625Z,100.00
2022-12-23T10:06:21.487Z,100.00
2022-12-23T10:08:51.063Z,100.00
2022-12-23T10:11:21.493Z,100.00
2022-12-23T10:13:50.939Z,100.00
2022-12-23T10:16:22.127Z,100.00
2022-12-23T10:18:53.851Z,100.00
2022-12-23T10:21:27.642Z,100.00
2022-12-23T10:23:55.918Z,100.00
2022-12-23T10:26:25.613Z,100.00
2022-12-23T10:29:01.472Z,100.00
2022-12-23T10:31:40.809Z,100.00
2022-12-23T10:34:15.341Z,100.00
2022-12-23T10:36:48.363Z,100.00
2022-12-23T10:39:24.526Z,100.00
2022-12-23T10:42:01.981Z,100.00
2022-12-23T10:44:44.844Z,100.00
2022-12-23T10:47:20.146Z,100.00
2022-12-23T10:49:55.207Z,100.00
2022-12-23T10:52:25.074Z,100.00
2022-12-23T10:54:53.000Z,100.00
2022-12-23T10:57:21.204Z,100.00
2022-12-23T10:59:48.795Z,100.00
2022-12-23T11:02:30.516Z,100.00
2022-12-23T11:04:58.319Z,100.00
2022-12-23T11:07:46.010Z,100.00
2022-12-23T11:10:17.821Z,100.00
2022-12-23T11:12:47.520Z,100.00
2022-12-23T11:15:31.031Z,100.00
2022-12-23T11:18:01.714Z,100.00
2022-12-23T11:20:29.933Z,100.00
2022-12-23T11:22:59.873Z,100.00
2022-12-23T11:25:30.541Z,100.00
2022-12-23T11:27:59.826Z,100.00
2022-12-23T11:30:28.153Z,100.00
2022-12-23T11:32:56.057Z,100.00
2022-12-23T11:35:29.549Z,100.00
2022-12-23T11:37:57.805Z,100.00
2022-12-23T11:40:28.068Z,100.00
2022-12-23T11:42:58.865Z,100.00
2022-12-23T11:45:28.541Z,100.00
2022-12-23T11:47:57.209Z,100.00
2022-12-23T11:50:32.474Z,100.00
2022-12-23T11:53:13.009Z,100.00
2022-12-23T11:55:47.759Z,100.00
2022-12-23T11:58:21.091Z,100.00
2022-12-23T12:00:56.124Z,100.00
2022-12-23T12:03:27.206Z,100.00
2022-12-23T12:05:59.866Z,100.00
2022-12-23T12:08:30.396Z,100.00
2022-12-23T12:11:03.121Z,100.00
2022-12-23T12:13:33.395Z,100.00
2022-12-23T12:16:12.284Z,100.00
2022-12-23T12:18:41.302Z,100.00
2022-12-23T12:21:13.707Z,100.00
2022-12-23T12:23:44.251Z,100.00
2022-12-23T12:26:16.971Z,100.00
2022-12-23T12:28:47.032Z,100.00
2022-12-23T12:31:18.763Z,100.00
2022-12-23T12:33:49.494Z,100.00
2022-12-23T12:36:26.200Z,100.00
2022-12-23T12:38:55.136Z,100.00
2022-12-23T12:41:28.176Z,100.00
2022-12-23T12:44:02.913Z,100.00
2022-12-23T12:46:33.903Z,100.00
2022-12-23T12:49:05.030Z,100.00
2022-12-23T12:51:39.742Z,100.00
2022-12-23T12:54:14.949Z,100.00
2022-12-23T12:56:49.055Z,100.00
2022-12-23T12:59:18.632Z,100.00
2022-12-23T13:01:54.255Z,100.00
2022-12-23T13:05:03.897Z,100.00
2022-12-23T13:07:39.159Z,100.00
2022-12-23T13:10:15.778Z,100.00
2022-12-23T13:12:53.617Z,100.00
2022-12-23T13:15:23.499Z,100.00
2022-12-23T13:18:04.242Z,100.00
2022-12-23T13:20:34.914Z,100.00
2022-12-23T13:23:34.346Z,100.00
2022-12-23T13:25:58.684Z,100.00
2022-12-23T13:28:34.621Z,100.00
2022-12-23T13:31:09.781Z,100.00
2022-12-23T13:33:42.308Z,100.00
2022-12-23T13:36:23.281Z,100.00
2022-12-23T13:39:04.923Z,100.00
2022-12-23T13:41:34.223Z,100.00
2022-12-23T13:44:05.221Z,100.00
2022-12-23T13:46:41.914Z,100.00
2022-12-23T13:49:17.716Z,100.00
2022-12-23T13:51:51.083Z,100.00
2022-12-23T13:54:28.557Z,100.00
2022-12-23T13:57:08.078Z,100.00
2022-12-23T13:59:40.670Z,100.00
2022-12-23T14:02:42.557Z,100.00
2022-12-23T14:05:29.485Z,100.00
2022-12-23T14:07:57.495Z,100.00
2022-12-23T14:10:26.583Z,100.00
2022-12-23T14:13:00.402Z,100.00
2022-12-23T14:15:40.400Z,100.00
2022-12-23T14:18:29.470Z,100.00
2022-12-23T14:21:05.849Z,100.00
2022-12-23T14:23:43.653Z,100.00
2022-12-23T14:26:23.286Z,100.00
2022-12-23T14:29:01.726Z,100.00
2022-12-23T14:31:34.722Z,100.00
2022-12-23T14:34:08.166Z,100.00
2022-12-23T14:36:36.081Z,100.00
2022-12-23T14:39:31.629Z,100.00
2022-12-23T14:42:05.980Z,100.00
2022-12-23T14:44:49.696Z,100.00
2022-12-23T14:47:32.578Z,100.00
2022-12-23T14:50:33.397Z,100.00
2022-12-23T14:53:01.530Z,100.00
2022-12-23T14:55:49.349Z,100.00
2022-12-23T14:58:52.358Z,100.00
2022-12-23T15:01:27.697Z,100.00
2022-12-23T15:04:01.368Z,100.00
2022-12-23T15:06:34.092Z,100.00
2022-12-23T15:09:02.892Z,100.00
2022-12-23T15:11:31.673Z,100.00
2022-12-23T15:14:01.229Z,100.00
2022-12-23T15:16:35.255Z,100.00
2022-12-23T15:19:13.939Z,100.00
2022-12-23T15:21:42.596Z,100.00
2022-12-23T15:24:16.959Z,100.00
2022-12-23T15:27:03.591Z,100.00
2022-12-23T15:29:36.574Z,100.00
2022-12-23T15:32:06.199Z,100.00
2022-12-23T15:34:34.483Z,100.00
2022-12-23T15:37:02.088Z,100.00
2022-12-23T15:39:33.869Z,100.00
2022-12-23T15:42:01.829Z,100.00
2022-12-23T15:44:36.348Z,100.00
2022-12-23T15:47:22.926Z,100.00
2022-12-23T15:49:50.709Z,100.00
2022-12-23T15:52:20.622Z,100.00
2022-12-23T15:54:55.642Z,100.00
2022-12-23T15:57:26.348Z,100.00
2022-12-23T15:59:54.602Z,100.00
2022-12-23T16:05:25.634Z,100.00
2022-12-23T16:08:09.513Z,100.00
2022-12-23T16:10:37.216Z,100.00
2022-12-23T16:13:04.964Z,100.00
2022-12-23T16:15:33.954Z,100.00
2022-12-23T16:18:22.322Z,100.00
2022-12-23T16:20:51.360Z,100.00
2022-12-23T16:23:18.996Z,100.00
2022-12-23T16:25:50.369Z,100.00
2022-12-23T16:28:22.978Z,100.00
2022-12-23T16:30:53.084Z,100.00
2022-12-23T16:33:32.436Z,100.00
2022-12-23T16:36:16.150Z,100.00
2022-12-23T16:38:43.775Z,100.00
2022-12-23T16:41:11.625Z,100.00
2022-12-23T16:43:39.461Z,100.00
2022-12-23T16:46:08.401Z,100.00
2022-12-23T16:48:40.035Z,100.00
2022-12-23T16:51:11.944Z,100.00
2022-12-23T16:53:39.635Z,100.00
2022-12-23T16:56:11.366Z,100.00
2022-12-23T16:58:38.982Z,100.00
2022-12-23T17:01:07.599Z,100.00
2022-12-23T17:03:35.488Z,100.00
2022-12-23T17:06:04.664Z,100.00
2022-12-23T17:08:32.235Z,100.00
2022-12-23T17:10:59.972Z,100.00
2022-12-23T17:13:27.611Z,100.00
2022-12-23T17:15:55.258Z,100.00
2022-12-23T17:18:22.813Z,100.00
2022-12-23T17:20:50.597Z,100.00
2022-12-23T17:23:27.108Z,100.00
2022-12-23T17:25:55.014Z,100.00
2022-12-23T17:28:22.804Z,100.00
2022-12-23T17:30:51.950Z,100.00
2022-12-23T17:33:20.591Z,100.00
2022-12-23T17:35:48.541Z,100.00
2022-12-23T17:38:17.664Z,100.00
2022-12-23T17:40:47.948Z,100.00
2022-12-23T17:43:17.417Z,100.00
2022-12-23T17:45:47.020Z,100.00
2022-12-23T17:48:20.856Z,100.00
2022-12-23T17:50:49.228Z,100.00
2022-12-23T17:53:17.528Z,100.00
2022-12-23T17:55:46.731Z,100.00
2022-12-23T17:58:14.988Z,100.00
2022-12-23T18:00:42.748Z,100.00
2022-12-23T18:03:22.343Z,100.00
2022-12-23T18:05:53.030Z,100.00
2022-12-23T18:08:25.002Z,100.00
2022-12-23T18:10:54.149Z,100.00
2022-12-23T18:13:22.437Z,100.00
2022-12-23T18:15:51.137Z,100.00
2022-12-23T18:18:28.694Z,100.00
2022-12-23T18:21:01.547Z,100.00
2022-12-23T18:23:30.988Z,100.00
2022-12-23T18:26:00.196Z,100.00
2022-12-23T18:28:28.202Z,100.00
2022-12-23T18:30:57.528Z,100.00
2022-12-23T18:33:28.638Z,100.00
2022-12-23T18:35:56.678Z,100.00
2022-12-23T18:38:24.463Z,100.00
2022-12-23T18:40:54.354Z,100.00
2022-12-23T18:43:24.741Z,100.00
2022-12-23T18:45:54.216Z,100.00
2022-12-23T18:48:22.690Z,100.00
2022-12-23T18:50:50.404Z,100.00
2022-12-23T18:53:24.700Z,100.00
2022-12-23T18:55:53.625Z,100.00
2022-12-23T18:58:23.376Z,100.00
2022-12-23T19:00:52.640Z,100.00
2022-12-23T19:03:23.847Z,100.00
2022-12-23T19:05:52.193Z,100.00
2022-12-23T19:08:26.231Z,100.00
2022-12-23T19:10:56.109Z,100.00
2022-12-23T19:13:25.447Z,100.00
2022-12-23T19:15:53.884Z,100.00
2022-12-23T19:18:23.072Z,100.00
2022-12-23T19:20:51.666Z,100.00
2022-12-23T19:23:19.576Z,100.00
2022-12-23T19:25:54.873Z,100.00
2022-12-23T19:28:25.420Z,100.00
2022-12-23T19:30:53.434Z,100.00
2022-12-23T19:33:21.362Z,100.00
2022-12-23T19:35:49.207Z,100.00
2022-12-23T19:38:19.630Z,100.00
2022-12-23T19:40:47.280Z,100.00
2022-12-23T19:43:15.157Z,100.00
2022-12-23T19:45:44.198Z,100.00
2022-12-23T19:48:12.091Z,100.00
2022-12-23T19:50:39.805Z,100.00
2022-12-23T19:53:08.056Z,100.00
2022-12-23T19:55:35.812Z,100.00
2022-12-23T19:58:03.477Z,100.00
2022-12-23T20:00:31.109Z,100.00
2022-12-23T20:03:00.167Z,100.00
2022-12-23T20:05:27.894Z,100.00
2022-12-23T20:07:55.566Z,100.00
2022-12-23T20:10:23.245Z,100.00
2022-12-23T20:12:50.925Z,100.00
2022-12-23T20:15:18.561Z,100.00
2022-12-23T20:17:46.334Z,100.00
2022-12-23T20:20:15.447Z,100.00
2022-12-23T20:22:43.085Z,100.00
2022-12-23T20:25:11.061Z,100.00
2022-12-23T20:27:39.041Z,100.00
2022-12-23T20:30:08.228Z,100.00
2022-12-23T20:32:36.062Z,100.00
2022-12-23T20:35:03.686Z,100.00
2022-12-23T20:37:32.714Z,100.00
2022-12-23T20:40:00.506Z,100.00
2022-12-23T20:42:28.266Z,100.00
2022-12-23T20:44:55.962Z,100.00
2022-12-23T20:47:23.677Z,100.00
2022-12-23T20:49:51.403Z,100.00
2022-12-23T20:52:19.080Z,100.00
2022-12-23T20:54:48.250Z,100.00
2022-12-23T20:57:17.587Z,100.00
2022-12-23T20:59:45.228Z,100.00
2022-12-23T21:02:13.325Z,100.00
2022-12-23T21:04:41.257Z,100.00
2022-12-23T21:07:08.932Z,100.00
2022-12-23T21:09:36.826Z,100.00
2022-12-23T21:12:06.064Z,100.00
2022-12-23T21:14:33.895Z,100.00
2022-12-23T21:17:01.493Z,100.00
2022-12-23T21:19:29.072Z,100.00
2022-12-23T21:21:57.933Z,100.00
2022-12-23T21:24:25.709Z,100.00
2022-12-23T21:26:56.950Z,100.00
2022-12-23T21:29:26.800Z,100.00
2022-12-23T21:31:55.087Z,100.00
2022-12-23T21:34:23.170Z,100.00
2022-12-23T21:36:50.806Z,100.00
2022-12-23T21:39:18.727Z,100.00
2022-12-23T21:41:46.300Z,100.00
2022-12-23T21:44:14.725Z,100.00
2022-12-23T21:46:43.857Z,100.00
2022-12-23T21:49:11.812Z,100.00
2022-12-23T21:51:41.313Z,100.00
2022-12-23T21:54:10.259Z,100.00
2022-12-23T21:56:38.429Z,100.00
2022-12-23T21:59:07.563Z,100.00
2022-12-23T22:01:35.845Z,100.00
2022-12-23T22:04:05.055Z,100.00
2022-12-23T22:06:33.993Z,100.00
2022-12-23T22:09:01.731Z,100.00
2022-12-23T22:11:30.594Z,100.00
2022-12-23T22:13:59.667Z,100.00
2022-12-23T22:16:29.241Z,100.00
2022-12-23T22:18:58.088Z,100.00
2022-12-23T22:21:28.606Z,100.00
2022-12-23T22:23:57.189Z,100.00
2022-12-23T22:26:27.021Z,100.00
2022-12-23T22:28:55.695Z,100.00
2022-12-23T22:31:28.758Z,100.00
2022-12-23T22:33:56.482Z,100.00
2022-12-23T22:36:24.396Z,100.00
2022-12-23T22:38:55.241Z,100.00
2022-12-23T22:41:23.865Z,100.00
2022-12-23T22:43:51.766Z,100.00
2022-12-23T22:46:19.852Z,100.00
2022-12-23T22:48:47.808Z,100.00
2022-12-23T22:51:18.005Z,100.00
2022-12-23T22:53:45.841Z,100.00
2022-12-23T22:56:16.532Z,100.00
2022-12-23T22:58:44.240Z,100.00
2022-12-23T23:01:20.609Z,100.00
2022-12-23T23:03:50.807Z,100.00
2022-12-23T23:06:19.108Z,100.00
2022-12-23T23:08:46.764Z,100.00
2022-12-23T23:11:15.851Z,100.00
2022-12-23T23:13:43.516Z,100.00
2022-12-23T23:16:11.190Z,100.00
2022-12-23T23:18:39.347Z,100.00
2022-12-23T23:21:07.075Z,99.24
2022-12-23T23:23:35.128Z,98.89
2022-12-23T23:26:03.568Z,98.91
2022-12-23T23:28:32.655Z,97.14
2022-12-23T23:31:31.947Z,96.49
2022-12-23T23:33:48.016Z,96.53
2022-12-23T23:36:15.707Z,93.80
2022-12-23T23:38:43.344Z,93.79
2022-12-23T23:41:11.019Z,90.83
2022-12-23T23:43:39.953Z,91.47
2022-12-23T23:46:07.730Z,91.12
2022-12-23T23:48:35.316Z,91.63
2022-12-23T23:51:06.945Z,91.07
2022-12-23T23:53:34.615Z,92.14
2022-12-23T23:56:04.217Z,91.67
2022-12-23T23:58:31.931Z,91.71
